createdAt,value
2023-05-22T00:00:31.994Z,19.46
2023-05-22T00:03:34.512Z,19.34
2023-05-22T00:06:37.257Z,19.12
2023-05-22T00:09:39.610Z,19.19
2023-05-22T00:12:42.050Z,19.12
2023-05-22T00:15:44.457Z,19.08
2023-05-22T00:18:47.620Z,18.96
2023-05-22T00:21:51.482Z,18.87
2023-05-22T00:24:53.924Z,18.92
2023-05-22T00:27:56.408Z,18.92
2023-05-22T00:30:58.812Z,18.95
2023-05-22T00:34:01.398Z,18.93
2023-05-22T00:37:03.972Z,18.98
2023-05-22T00:40:08.504Z,18.95
2023-05-22T00:43:10.952Z,18.97
2023-05-22T00:46:13.364Z,18.89
2023-05-22T00:49:15.865Z,18.88
2023-05-22T00:52:18.330Z,18.80
2023-05-22T00:55:20.762Z,18.72
2023-05-22T00:58:23.131Z,18.57
2023-05-22T01:01:26.608Z,18.48
2023-05-22T01:04:32.829Z,18.46
2023-05-22T01:07:37.860Z,18.54
2023-05-22T01:10:41.140Z,18.40
2023-05-22T01:13:50.393Z,18.35
2023-05-22T01:17:11.929Z,18.30
2023-05-22T01:20:26.755Z,18.21
2023-05-22T01:23:48.592Z,18.09
2023-05-22T01:27:26.035Z,18.02
2023-05-22T01:30:46.980Z,17.92
2023-05-22T01:33:56.941Z,17.97
2023-05-22T01:36:59.489Z,17.83
2023-05-22T01:40:01.927Z,17.94
2023-05-22T01:43:04.641Z,17.87
2023-05-22T01:46:07.131Z,17.81
2023-05-22T01:49:09.699Z,17.84
2023-05-22T01:52:16.041Z,17.80
2023-05-22T01:55:21.408Z,17.76
2023-05-22T01:58:45.000Z,17.63
2023-05-22T02:01:48.289Z,17.54
2023-05-22T02:04:56.671Z,17.48
2023-05-22T02:07:59.124Z,17.38
2023-05-22T02:11:01.473Z,17.46
2023-05-22T02:14:03.859Z,17.42
2023-05-22T02:17:06.234Z,17.21
2023-05-22T02:20:15.134Z,17.17
2023-05-22T02:23:19.158Z,17.22
2023-05-22T02:26:21.563Z,17.18
2023-05-22T02:29:25.414Z,17.20
2023-05-22T02:32:28.539Z,17.08
2023-05-22T02:35:30.982Z,16.96
2023-05-22T02:38:33.400Z,16.97
2023-05-22T02:41:36.237Z,16.94
2023-05-22T02:44:38.685Z,17.01
2023-05-22T02:47:41.173Z,16.87
2023-05-22T02:50:44.342Z,16.75
2023-05-22T02:53:46.808Z,16.77
2023-05-22T02:56:49.681Z,16.82
2023-05-22T02:59:52.702Z,16.77
2023-05-22T03:02:55.192Z,16.74
2023-05-22T03:05:58.665Z,16.68
2023-05-22T03:09:01.262Z,16.54
2023-05-22T03:12:05.046Z,16.58
2023-05-22T03:15:07.932Z,16.58
2023-05-22T03:18:11.523Z,16.50
2023-05-22T03:21:14.899Z,16.47
2023-05-22T03:24:17.413Z,16.48
2023-05-22T03:27:20.369Z,16.44
2023-05-22T03:30:24.430Z,16.46
2023-05-22T03:33:40.154Z,16.58
2023-05-22T03:36:42.653Z,16.64
2023-05-22T03:39:45.080Z,16.58
2023-05-22T03:42:57.017Z,16.52
2023-05-22T03:45:59.496Z,16.45
2023-05-22T03:49:02.629Z,16.44
2023-05-22T03:52:05.168Z,16.49
2023-05-22T03:55:08.349Z,16.52
2023-05-22T03:58:10.750Z,16.48
2023-05-22T04:01:14.106Z,16.51
2023-05-22T04:04:16.648Z,16.41
2023-05-22T04:07:20.403Z,16.82
2023-05-22T04:10:23.670Z,17.16
2023-05-22T04:13:27.268Z,17.38
2023-05-22T04:16:29.753Z,17.51
2023-05-22T04:19:32.292Z,17.69
2023-05-22T04:22:35.194Z,17.68
2023-05-22T04:25:38.794Z,17.73
2023-05-22T04:28:41.881Z,17.87
2023-05-22T04:31:44.711Z,18.07
2023-05-22T04:34:51.235Z,18.06
2023-05-22T04:37:53.622Z,18.12
2023-05-22T04:40:56.658Z,18.18
2023-05-22T04:44:00.527Z,18.29
2023-05-22T04:47:06.001Z,18.35
2023-05-22T04:50:10.301Z,18.33
2023-05-22T04:53:13.195Z,18.26
2023-05-22T04:56:24.342Z,18.36
2023-05-22T04:59:38.135Z,18.33
2023-05-22T05:02:41.373Z,18.30
2023-05-22T05:05:44.932Z,18.38
2023-05-22T05:08:49.792Z,18.48
2023-05-22T05:11:52.456Z,18.63
2023-05-22T05:14:55.153Z,18.80
2023-05-22T05:17:57.618Z,18.81
2023-05-22T05:21:00.235Z,18.89
2023-05-22T05:24:02.711Z,18.98
2023-05-22T05:27:05.898Z,19.02
2023-05-22T05:30:08.956Z,19.17
2023-05-22T05:33:24.914Z,19.21
2023-05-22T05:36:41.635Z,19.22
2023-05-22T05:39:44.138Z,19.29
2023-05-22T05:42:46.718Z,19.43
2023-05-22T05:45:50.144Z,19.41
2023-05-22T05:48:52.838Z,19.47
2023-05-22T05:51:55.484Z,19.48
2023-05-22T05:55:01.041Z,19.58
2023-05-22T05:58:04.007Z,19.64
2023-05-22T06:01:16.978Z,19.53
2023-05-22T06:04:19.418Z,19.58
2023-05-22T06:07:24.358Z,19.73
2023-05-22T06:10:28.815Z,19.68
2023-05-22T06:13:47.413Z,19.68
2023-05-22T06:16:49.984Z,19.85
2023-05-22T06:19:53.118Z,19.89
2023-05-22T06:22:55.626Z,19.92
2023-05-22T06:25:59.068Z,20.07
2023-05-22T06:29:02.347Z,20.09
2023-05-22T06:32:08.099Z,20.13
2023-05-22T06:35:12.480Z,20.26
2023-05-22T06:38:16.262Z,20.40
2023-05-22T06:41:19.689Z,20.39
2023-05-22T06:44:22.187Z,20.50
2023-05-22T06:47:30.216Z,20.62
2023-05-22T06:50:32.758Z,20.69
2023-05-22T06:53:35.749Z,20.74
2023-05-22T06:56:38.438Z,20.81
2023-05-22T06:59:43.865Z,20.97
2023-05-22T07:03:16.166Z,20.98
2023-05-22T07:06:39.166Z,21.20
2023-05-22T07:09:42.250Z,21.27
2023-05-22T07:12:44.636Z,21.27
2023-05-22T07:15:47.467Z,21.30
2023-05-22T07:18:49.970Z,21.32
2023-05-22T07:21:52.855Z,21.45
2023-05-22T07:24:57.714Z,21.55
2023-05-22T07:28:09.015Z,21.82
2023-05-22T07:31:17.596Z,21.77
2023-05-22T07:34:22.915Z,21.80
2023-05-22T07:37:25.569Z,21.83
2023-05-22T07:40:28.202Z,22.16
2023-05-22T07:43:31.518Z,22.27
2023-05-22T07:46:37.868Z,22.20
2023-05-22T07:49:46.901Z,22.38
2023-05-22T07:52:49.484Z,22.51
2023-05-22T07:55:52.506Z,22.69
2023-05-22T07:58:55.669Z,22.71
2023-05-22T08:01:59.210Z,22.73
2023-05-22T08:05:01.612Z,22.90
2023-05-22T08:08:04.883Z,22.84
2023-05-22T08:11:07.502Z,23.13
2023-05-22T08:14:10.297Z,23.32
2023-05-22T08:17:12.848Z,23.44
2023-05-22T08:20:15.604Z,23.61
2023-05-22T08:23:18.116Z,23.65
2023-05-22T08:26:20.626Z,23.79
2023-05-22T08:29:23.016Z,23.88
2023-05-22T08:32:25.467Z,23.97
2023-05-22T08:35:27.927Z,24.00
2023-05-22T08:38:30.309Z,24.06
2023-05-22T08:41:32.790Z,24.12
2023-05-22T08:44:35.192Z,24.16
2023-05-22T08:47:37.872Z,24.37
2023-05-22T08:50:43.735Z,24.37
2023-05-22T08:53:46.331Z,24.55
2023-05-22T08:56:56.947Z,24.58
2023-05-22T08:59:59.933Z,24.48
2023-05-22T09:03:02.647Z,24.75
2023-05-22T09:06:10.535Z,24.71
2023-05-22T09:09:13.127Z,24.83
2023-05-22T09:12:15.669Z,24.99
2023-05-22T09:15:20.482Z,25.18
2023-05-22T09:18:22.929Z,25.36
2023-05-22T09:21:32.729Z,25.45
2023-05-22T09:24:44.804Z,25.56
2023-05-22T09:27:49.977Z,25.44
2023-05-22T09:30:53.289Z,25.61
2023-05-22T09:33:56.180Z,25.57
2023-05-22T09:37:02.973Z,25.80
2023-05-22T09:40:13.813Z,25.93
2023-05-22T09:43:17.799Z,26.24
2023-05-22T09:46:20.274Z,26.43
2023-05-22T09:49:22.911Z,26.53
2023-05-22T09:52:25.372Z,26.24
2023-05-22T09:55:27.755Z,26.30
2023-05-22T09:58:31.232Z,26.64
2023-05-22T10:01:34.203Z,26.73
2023-05-22T10:04:36.968Z,26.88
2023-05-22T10:07:46.083Z,26.83
2023-05-22T10:10:52.322Z,27.22
2023-05-22T10:13:55.289Z,27.07
2023-05-22T10:17:02.096Z,27.39
2023-05-22T10:20:07.984Z,27.62
2023-05-22T10:23:10.793Z,27.83
2023-05-22T10:26:13.208Z,27.96
2023-05-22T10:29:18.254Z,28.20
2023-05-22T10:32:42.827Z,28.21
2023-05-22T10:36:02.557Z,27.96
2023-05-22T10:39:37.541Z,28.29
2023-05-22T10:42:40.004Z,28.48
2023-05-22T10:45:45.273Z,28.65
2023-05-22T10:48:49.777Z,28.88
2023-05-22T10:51:56.604Z,28.52
2023-05-22T10:55:00.472Z,27.92
2023-05-22T10:58:13.097Z,28.25
2023-05-22T11:01:15.521Z,28.49
2023-05-22T11:04:19.291Z,28.84
2023-05-22T11:07:27.040Z,28.59
2023-05-22T11:10:53.073Z,29.02
2023-05-22T11:14:04.613Z,29.43
2023-05-22T11:17:07.192Z,29.36
2023-05-22T11:20:22.648Z,29.71
2023-05-22T11:23:26.493Z,29.78
2023-05-22T11:26:28.978Z,29.97
2023-05-22T11:29:31.681Z,30.26
2023-05-22T11:32:37.834Z,30.41
2023-05-22T11:35:40.282Z,30.46
2023-05-22T11:38:43.619Z,30.28
2023-05-22T11:41:46.143Z,30.49
2023-05-22T11:44:48.573Z,30.31
2023-05-22T11:47:51.066Z,29.67
2023-05-22T11:50:53.501Z,29.74
2023-05-22T11:53:56.897Z,29.80
2023-05-22T11:56:59.283Z,29.58
2023-05-22T12:00:02.134Z,29.89
2023-05-22T12:03:14.324Z,30.42
2023-05-22T12:06:17.870Z,29.47
2023-05-22T12:09:20.385Z,28.62
2023-05-22T12:12:22.907Z,29.18
2023-05-22T12:15:25.473Z,29.53
2023-05-22T12:18:35.189Z,30.01
2023-05-22T12:21:43.949Z,30.41
2023-05-22T12:24:46.464Z,30.72
2023-05-22T12:27:48.815Z,30.76
2023-05-22T12:30:55.586Z,30.84
2023-05-22T12:33:57.994Z,30.52
2023-05-22T12:37:00.710Z,30.63
2023-05-22T12:40:04.257Z,30.83
2023-05-22T12:43:06.743Z,31.04
2023-05-22T12:46:09.230Z,30.78
2023-05-22T12:49:11.685Z,30.72
2023-05-22T12:52:14.062Z,30.90
2023-05-22T12:55:16.581Z,31.13
2023-05-22T12:58:18.962Z,31.25
2023-05-22T13:01:21.910Z,31.29
2023-05-22T13:04:24.402Z,31.13
2023-05-22T13:07:26.786Z,31.03
2023-05-22T13:10:29.567Z,31.27
2023-05-22T13:13:31.968Z,31.57
2023-05-22T13:16:34.520Z,31.63
2023-05-22T13:19:37.103Z,31.36
2023-05-22T13:22:40.193Z,31.47
2023-05-22T13:25:42.632Z,31.40
2023-05-22T13:28:44.991Z,31.57
2023-05-22T13:31:47.356Z,31.50
2023-05-22T13:34:49.821Z,31.48
2023-05-22T13:37:52.432Z,31.38
2023-05-22T13:40:54.886Z,31.58
2023-05-22T13:43:57.514Z,31.52
2023-05-22T13:47:00.064Z,30.91
2023-05-22T13:50:02.461Z,30.64
2023-05-22T13:53:04.855Z,30.18
2023-05-22T13:56:07.259Z,30.03
2023-05-22T13:59:09.715Z,30.12
2023-05-22T14:02:12.148Z,30.10
2023-05-22T14:05:14.880Z,30.25
2023-05-22T14:08:17.300Z,30.18
2023-05-22T14:11:19.736Z,30.37
2023-05-22T14:14:24.065Z,30.16
2023-05-22T14:17:26.550Z,30.31
2023-05-22T14:20:29.298Z,30.41
2023-05-22T14:23:31.798Z,30.34
2023-05-22T14:26:34.233Z,30.40
2023-05-22T14:29:36.860Z,30.60
2023-05-22T14:32:40.082Z,30.57
2023-05-22T14:35:42.642Z,30.73
2023-05-22T14:38:45.186Z,30.69
2023-05-22T14:41:47.569Z,30.66
2023-05-22T14:44:49.965Z,30.65
2023-05-22T14:47:52.372Z,30.41
2023-05-22T14:50:54.902Z,30.18
2023-05-22T14:53:57.343Z,30.07
2023-05-22T14:56:59.717Z,30.20
2023-05-22T15:00:02.298Z,30.21
2023-05-22T15:03:04.786Z,29.98
2023-05-22T15:06:07.314Z,29.94
2023-05-22T15:09:09.716Z,30.09
2023-05-22T15:12:12.074Z,29.72
2023-05-22T15:15:14.430Z,29.74
2023-05-22T15:18:17.056Z,29.36
2023-05-22T15:21:19.520Z,29.70
2023-05-22T15:24:22.259Z,29.68
2023-05-22T15:27:24.605Z,29.52
2023-05-22T15:30:27.381Z,29.58
2023-05-22T15:33:29.764Z,29.46
2023-05-22T15:36:32.924Z,29.33
2023-05-22T15:39:35.315Z,29.29
2023-05-22T15:42:38.322Z,29.24
2023-05-22T15:45:41.144Z,29.26
2023-05-22T15:48:46.953Z,29.32
2023-05-22T15:51:49.325Z,29.06
2023-05-22T15:54:51.693Z,28.89
2023-05-22T15:57:54.096Z,28.86
2023-05-22T16:00:56.628Z,28.73
2023-05-22T16:03:59.113Z,28.61
2023-05-22T16:07:01.559Z,28.65
2023-05-22T16:10:04.237Z,28.45
2023-05-22T16:13:06.683Z,28.61
2023-05-22T16:16:09.277Z,28.52
2023-05-22T16:19:11.778Z,28.48
2023-05-22T16:22:14.335Z,28.36
2023-05-22T16:25:17.089Z,28.45
2023-05-22T16:28:19.505Z,28.21
2023-05-22T16:31:22.095Z,28.08
2023-05-22T16:34:24.579Z,27.92
2023-05-22T16:37:27.033Z,27.81
2023-05-22T16:40:29.496Z,27.64
2023-05-22T16:43:31.919Z,27.65
2023-05-22T16:46:34.352Z,27.46
2023-05-22T16:49:36.796Z,27.25
2023-05-22T16:52:39.169Z,27.26
2023-05-22T16:55:41.971Z,27.17
2023-05-22T16:58:45.272Z,27.16
2023-05-22T17:01:47.821Z,27.07
2023-05-22T17:04:50.217Z,26.99
2023-05-22T17:07:52.588Z,26.85
2023-05-22T17:10:55.594Z,26.83
2023-05-22T17:13:58.057Z,26.66
2023-05-22T17:17:00.610Z,26.52
2023-05-22T17:20:06.201Z,26.43
2023-05-22T17:23:08.823Z,26.53
2023-05-22T17:26:11.272Z,26.40
2023-05-22T17:29:13.733Z,26.29
2023-05-22T17:32:16.247Z,26.28
2023-05-22T17:35:18.739Z,26.17
2023-05-22T17:38:22.040Z,26.01
2023-05-22T17:41:24.529Z,25.86
2023-05-22T17:44:26.941Z,25.73
2023-05-22T17:47:29.375Z,25.72
2023-05-22T17:50:31.804Z,25.62
2023-05-22T17:53:35.696Z,25.42
2023-05-22T17:56:39.081Z,25.25
2023-05-22T17:59:41.666Z,25.22
2023-05-22T18:02:44.387Z,25.12
2023-05-22T18:05:50.291Z,25.16
2023-05-22T18:08:52.716Z,25.07
2023-05-22T18:11:55.119Z,24.92
2023-05-22T18:14:57.526Z,24.78
2023-05-22T18:18:00.365Z,24.78
2023-05-22T18:21:02.825Z,24.66
2023-05-22T18:24:05.538Z,24.56
2023-05-22T18:27:07.954Z,24.55
2023-05-22T18:30:10.716Z,24.53
2023-05-22T18:33:13.260Z,24.36
2023-05-22T18:36:16.254Z,24.23
2023-05-22T18:39:18.756Z,24.30
2023-05-22T18:42:21.172Z,24.17
2023-05-22T18:45:23.583Z,24.16
2023-05-22T18:48:27.244Z,24.11
2023-05-22T18:51:29.861Z,24.09
2023-05-22T18:54:32.221Z,24.10
2023-05-22T18:57:34.588Z,24.00
2023-05-22T19:00:39.012Z,23.96
2023-05-22T19:03:41.829Z,23.88
2023-05-22T19:06:44.275Z,23.74
2023-05-22T19:09:46.782Z,23.74
2023-05-22T19:12:49.375Z,23.64
2023-05-22T19:15:51.785Z,23.50
2023-05-22T19:18:54.207Z,23.15
2023-05-22T19:21:56.593Z,23.11
2023-05-22T19:24:59.040Z,23.07
2023-05-22T19:28:01.427Z,22.99
2023-05-22T19:31:03.823Z,22.92
2023-05-22T19:34:06.257Z,22.86
2023-05-22T19:37:08.708Z,22.77
2023-05-22T19:40:11.285Z,22.66
2023-05-22T19:43:13.756Z,22.58
2023-05-22T19:46:16.144Z,22.64
2023-05-22T19:49:19.044Z,22.56
2023-05-22T19:52:21.481Z,22.47
2023-05-22T19:55:24.147Z,22.41
2023-05-22T19:58:26.680Z,22.25
2023-05-22T20:01:29.159Z,22.29
2023-05-22T20:04:31.754Z,22.32
2023-05-22T20:07:34.129Z,22.15
2023-05-22T20:10:36.581Z,22.06
2023-05-22T20:13:38.969Z,22.10
2023-05-22T20:16:41.493Z,22.09
2023-05-22T20:19:45.099Z,21.89
2023-05-22T20:22:47.581Z,21.88
2023-05-22T20:25:50.010Z,21.63
2023-05-22T20:28:52.414Z,21.56
2023-05-22T20:31:55.989Z,21.63
2023-05-22T20:34:58.465Z,21.54
2023-05-22T20:38:03.328Z,21.57
2023-05-22T20:41:09.552Z,21.54
2023-05-22T20:44:12.244Z,21.50
2023-05-22T20:47:14.639Z,21.41
2023-05-22T20:50:17.047Z,21.37
2023-05-22T20:53:19.663Z,21.39
2023-05-22T20:56:22.010Z,21.39
2023-05-22T20:59:24.402Z,21.29
2023-05-22T21:02:26.860Z,21.10
2023-05-22T21:05:29.305Z,21.16
2023-05-22T21:08:31.750Z,21.09
2023-05-22T21:11:34.121Z,21.08
2023-05-22T21:14:36.495Z,21.06
2023-05-22T21:17:39.203Z,20.89
2023-05-22T21:20:41.837Z,20.86
2023-05-22T21:23:44.471Z,20.79
2023-05-22T21:26:46.818Z,20.78
2023-05-22T21:29:49.207Z,20.60
2023-05-22T21:32:51.905Z,20.52
2023-05-22T21:35:54.301Z,20.46
2023-05-22T21:38:57.804Z,20.27
2023-05-22T21:42:00.201Z,20.22
2023-05-22T21:45:02.571Z,20.20
2023-05-22T21:48:05.260Z,20.20
2023-05-22T21:51:07.678Z,20.04
2023-05-22T21:54:10.109Z,20.00
2023-05-22T21:57:12.553Z,19.92
2023-05-22T22:00:15.557Z,19.93
2023-05-22T22:03:18.120Z,19.92
2023-05-22T22:06:20.674Z,19.98
2023-05-22T22:09:23.086Z,20.04
2023-05-22T22:12:25.476Z,19.96
2023-05-22T22:15:27.960Z,20.08
2023-05-22T22:18:32.539Z,19.93
2023-05-22T22:21:35.277Z,19.80
2023-05-22T22:24:37.702Z,19.80
2023-05-22T22:27:40.074Z,19.83
2023-05-22T22:30:42.647Z,19.76
2023-05-22T22:33:45.145Z,19.73
2023-05-22T22:36:47.666Z,19.65
2023-05-22T22:39:50.161Z,19.50
2023-05-22T22:42:52.522Z,19.53
2023-05-22T22:45:55.959Z,19.30
2023-05-22T22:49:01.946Z,19.27
2023-05-22T22:52:04.746Z,19.17
2023-05-22T22:55:07.633Z,19.18
2023-05-22T22:58:10.205Z,19.26
2023-05-22T23:01:12.687Z,19.26
2023-05-22T23:04:15.254Z,19.26
2023-05-22T23:07:17.710Z,19.12
2023-05-22T23:10:20.093Z,19.04
2023-05-22T23:13:22.795Z,19.04
2023-05-22T23:16:25.923Z,18.96
2023-05-22T23:19:28.595Z,18.97
2023-05-22T23:22:30.999Z,18.83
2023-05-22T23:25:33.396Z,18.81
2023-05-22T23:28:36.270Z,18.78
2023-05-22T23:31:40.479Z,18.73
2023-05-22T23:34:44.252Z,18.63
2023-05-22T23:37:46.637Z,18.57
2023-05-22T23:40:49.008Z,18.67
2023-05-22T23:43:51.357Z,18.63
2023-05-22T23:46:53.754Z,18.49
2023-05-22T23:49:56.762Z,18.39
2023-05-22T23:52:59.175Z,18.38
2023-05-22T23:56:01.662Z,18.37
2023-05-22T23:59:04.496Z,18.36
